Flight Track Log - Related Links

Times and Time Zones

All times are in EDT time to prevent confusion due to time zone crossing. See the N54715 flight status page for this flight to view local times or setup timezone preferences in your user account.

Time Position Orientation Groundspeed Altitude Reporting Facility
EDT Latitude Longitude Course Direction KTS MPH feet Rate Location/Type
Thu 11:52:35 PM 35.8947 -115.0897 134° Southeast 85 98 9,500  Level Los Angeles Center
Thu 11:53:16 PM 35.8800 -115.0814 155° Southeast 82 94 5,100 -4,161 Descending Los Angeles Center
Thu 11:53:37 PM 35.8769 -115.0753 122° Southeast 85 98 5,200 492 Climbing Los Angeles Center
Thu 11:54:17 PM 35.8625 -115.0606 140° Southeast 89 102 5,600 590 Climbing Los Angeles Center
Thu 11:54:38 PM 35.8544 -115.0506 135° Southeast 88 101 5,800 492 Climbing Los Angeles Center
Thu 11:55:18 PM 35.8425 -115.0381 140° Southeast 91 105 6,100 387 Climbing Los Angeles Center
Thu 11:55:40 PM 35.8369 -115.0275 123° Southeast 90 104 6,200 400 Climbing Los Angeles Center
Thu 11:56:18 PM 35.8269 -115.0167 139° Southeast 91 105 6,500 387 Climbing Los Angeles Center
Thu 11:56:42 PM 35.8211 -115.0042 120° Southeast 89 102 6,600 295 Climbing Los Angeles Center
Thu 11:57:19 PM 35.8144 -114.9889 118° Southeast 86 99 6,800 393 Climbing Los Angeles Center
Thu 11:57:43 PM 35.8089 -114.9794 126° Southeast 87 100 7,000 327 Climbing Los Angeles Center
Thu 11:58:00 PM 35.6430 -114.4285 134° Southeast  Level FlightAware Approximate
Thu 11:58:14 PM 35.7989 -114.9675 136° Southeast 90 104 7,100  Level Los Angeles Center
Thu 11:58:45 PM 35.7928 -114.9556 122° Southeast 88 101 7,300 393 Climbing Los Angeles Center
Thu 11:59:15 PM 35.7808 -114.9444 143° Southeast 93 107 7,500 387 Climbing Los Angeles Center
Thu 11:59:47 PM 35.7756 -114.9319 117° Southeast 91 105 7,700 393 Climbing Los Angeles Center
Fri 12:00:16 AM 35.7669 -114.9197 131° Southeast 89 102 7,900 197 Climbing Los Angeles Center
Fri 12:00:48 AM 35.7639 -114.9119 116° Southeast 90 104 7,900 400 Level Los Angeles Center
Fri 12:01:16 AM 35.7489 -114.8967 140° Southeast 94 108 8,300 387 Climbing Los Angeles Center
Fri 12:01:50 AM 35.7478 -114.8867 98° East 92 106 8,300 393 Level Los Angeles Center
Fri 12:02:17 AM 35.7322 -114.8703 139° Southeast 95 109 8,700 581 Climbing Los Angeles Center
Fri 12:02:52 AM 35.7222 -114.8528 125° Southeast 96 110 8,900 375 Climbing Los Angeles Center
Fri 12:03:53 AM 35.7022 -114.8297 137° Southeast 97 112 9,300 341 Climbing Los Angeles Center
Fri 12:04:55 AM 35.6789 -114.8097 145° Southeast 99 114 9,600 146 Climbing Los Angeles Center
Fri 12:05:56 AM 35.6544 -114.7819 137° Southeast 117 135 9,600  Level Los Angeles Center
Fri 12:06:58 AM 35.6331 -114.7464 127° Southeast 128 147 9,600 -49 Level Los Angeles Center
Fri 12:07:59 AM 35.6200 -114.7072 112° Southeast 124 143 9,500 -49 Descending Los Angeles Center
Fri 12:09:01 AM 35.6056 -114.6794 123° Southeast 120 138 9,500  Level Los Angeles Center
Fri 12:10:02 AM 35.5747 -114.6397 134° Southeast 133 153 9,500 49 Level Los Angeles Center
Fri 12:11:04 AM 35.5469 -114.6006 131° Southeast 128 147 9,600  Climbing Los Angeles Center
Fri 12:12:06 AM 35.5228 -114.5686 133° Southeast 129 148 9,500  Descending Los Angeles Center
Fri 12:13:07 AM 35.4978 -114.5358 133° Southeast 131 151 9,600 49 Climbing Los Angeles Center
Fri 12:14:09 AM 35.4739 -114.5042 133° Southeast 128 147 9,600  Level Los Angeles Center
Fri 12:15:10 AM 35.4511 -114.4700 129° Southeast 129 148 9,600 -49 Level Los Angeles Center
Fri 12:16:12 AM 35.4250 -114.4364 134° Southeast 133 153 9,500  Descending Los Angeles Center
Fri 12:17:13 AM 35.4003 -114.4019 131° Southeast 135 155 9,600 49 Climbing Los Angeles Center
Fri 12:18:15 AM 35.3781 -114.3683 129° Southeast 130 150 9,600  Level Los Angeles Center
Fri 12:19:16 AM 35.3517 -114.3253 127° Southeast 131 151 9,600  Level Los Angeles Center
Fri 12:20:18 AM 35.3300 -114.2881 126° Southeast 132 152 9,600  Level Los Angeles Center
Fri 12:21:19 AM 35.3044 -114.2569 135° Southeast 130 150 9,600  Level Los Angeles Center
Fri 12:22:33 AM 35.2767 -114.2275 139° Southeast 131 151 9,600  Level Los Angeles Center
Fri 12:23:34 AM 35.2492 -114.1850 128° Southeast 132 152 9,600  Level Los Angeles Center
Fri 12:24:36 AM 35.2261 -114.1511 130° Southeast 131 151 9,600  Level Los Angeles Center
Fri 12:25:37 AM 35.1928 -114.1283 151° Southeast 132 152 9,600  Level Los Angeles Center
Fri 12:26:39 AM 35.1572 -114.1119 159° South 136 157 9,600 -49 Level Los Angeles Center
Fri 12:27:40 AM 35.1222 -114.0767 140° Southeast 135 155 9,500 -49 Descending Los Angeles Center
Fri 12:28:42 AM 35.0944 -114.0461 138° Southeast 135 155 9,500  Level Los Angeles Center
Fri 12:29:43 AM 35.0694 -114.0142 134° Southeast 133 153 9,500 49 Level Los Angeles Center
Fri 12:30:45 AM 35.0528 -113.9769 119° Southeast 128 147 9,600 49 Climbing Los Angeles Center
Fri 12:31:46 AM 35.0397 -113.9369 112° Southeast 125 144 9,600  Level Los Angeles Center
Fri 12:32:48 AM 35.0272 -113.8944 110° East 128 147 9,600  Level Los Angeles Center
Fri 12:33:49 AM 35.0086 -113.8567 121° Southeast 129 148 9,600  Level Los Angeles Center
Fri 12:34:51 AM 34.9822 -113.8253 136° Southeast 130 150 9,600  Level Los Angeles Center
Fri 12:35:52 AM 34.9544 -113.7953 138° Southeast 131 151 9,600  Level Los Angeles Center
Fri 12:36:54 AM 34.9164 -113.7667 148° Southeast 133 153 9,600 -49 Level Los Angeles Center
Fri 12:37:55 AM 34.8825 -113.7478 155° Southeast 134 154 9,500  Descending Los Angeles Center
Fri 12:38:41 AM 34.8556 -113.7308 153° Southeast 135 155 9,600 56 Climbing Albuquerque Center
Fri 12:39:42 AM 34.8233 -113.7089 151° Southeast 134 154 9,600 -50 Level Albuquerque Center
Fri 12:40:42 AM 34.7947 -113.6769 137° Southeast 138 159 9,500 -50 Descending Albuquerque Center
Fri 12:41:43 AM 34.7706 -113.6422 130° Southeast 136 157 9,500 -49 Level Albuquerque Center
Fri 12:42:44 AM 34.7519 -113.6028 120° Southeast 136 157 9,400 49 Descending Albuquerque Center
Fri 12:43:45 AM 34.7358 -113.5636 117° Southeast 132 152 9,600 99 Climbing Albuquerque Center
Fri 12:44:45 AM 34.7222 -113.5253 113° Southeast 127 146 9,600 -50 Level Albuquerque Center
Fri 12:45:46 AM 34.7031 -113.4875 122° Southeast 130 150 9,500 -49 Descending Albuquerque Center
Fri 12:46:47 AM 34.6828 -113.4506 124° Southeast 132 152 9,500 -50 Level Albuquerque Center
Fri 12:47:47 AM 34.6647 -113.4131 120° Southeast 130 150 9,400 50 Descending Albuquerque Center
Fri 12:48:48 AM 34.6494 -113.3778 118° Southeast 125 144 9,600  Climbing Albuquerque Center
Fri 12:49:49 AM 34.6322 -113.3336 115° Southeast 122 140 9,400 -50 Descending Albuquerque Center
Fri 12:50:49 AM 34.6169 -113.2956 116° Southeast 124 143 9,500  Climbing Albuquerque Center
Fri 12:51:50 AM 34.6031 -113.2575 114° Southeast 124 143 9,400  Descending Albuquerque Center
Fri 12:52:51 AM 34.5931 -113.2181 107° East 124 143 9,500 99 Climbing Albuquerque Center
Fri 12:53:51 AM 34.5761 -113.1833 121° Southeast 125 144 9,600  Climbing Albuquerque Center
Fri 12:54:52 AM 34.5456 -113.1606 148° Southeast 129 148 9,500 -50 Descending Albuquerque Center
Fri 12:55:52 AM 34.5142 -113.1394 151° Southeast 130 150 9,500  Level Albuquerque Center
Fri 12:56:53 AM 34.4839 -113.1178 149° Southeast 129 148 9,500 49 Level Albuquerque Center
Fri 12:57:54 AM 34.4522 -113.0994 154° Southeast 128 147 9,600  Climbing Albuquerque Center
Fri 12:58:54 AM 34.4169 -113.0836 160° South 132 152 9,500 -49 Descending Albuquerque Center
Fri 12:59:56 AM 34.3828 -113.0686 160° South 133 153 9,500 49 Level Albuquerque Center
Fri 01:00:57 AM 34.3547 -113.0342 135° Southeast 134 154 9,600  Climbing Albuquerque Center
Fri 01:01:57 AM 34.3267 -113.0092 144° Southeast 126 145 9,500 99 Descending Albuquerque Center
Fri 01:02:58 AM 34.2994 -112.9856 144° Southeast 121 139 9,800 149 Climbing Albuquerque Center
Fri 01:03:58 AM 34.2753 -112.9547 133° Southeast 125 144 9,800  Level Albuquerque Center
Fri 01:04:59 AM 34.2456 -112.9158 133° Southeast 131 151 9,800 -107 Level Albuquerque Center
Fri 01:05:50 AM 34.2261 -112.8894 132° Southeast 131 151 9,600  Descending Albuquerque Center
Fri 01:06:00 AM 34.2217 -112.8839 134° Southeast 130 150 9,800  Climbing Albuquerque Center
Fri 01:06:15 AM 34.2158 -112.8792 146° Southeast 128 147 9,600  Descending Albuquerque Center
Fri 01:07:00 AM 34.1947 -112.8561 138° Southeast 127 146 9,800  Climbing Albuquerque Center
Fri 01:07:15 AM 34.1897 -112.8525 149° Southeast 124 143 9,600 -197 Descending Albuquerque Center
Fri 01:08:01 AM 34.1681 -112.8289 138° Southeast 126 145 9,600  Level Albuquerque Center
Fri 01:08:10 AM 34.1639 -112.8256 146° Southeast 127 146 9,600  Level Albuquerque Center
Fri 01:09:01 AM 34.1450 -112.7969 129° Southeast 126 145 9,600  Level Albuquerque Center
Fri 01:09:10 AM 34.1417 -112.7953 158° South 127 146 9,600  Level Albuquerque Center
Fri 01:10:02 AM 34.1192 -112.7683 135° Southeast 126 145 9,600  Level Albuquerque Center
Fri 01:10:11 AM 34.1147 -112.7636 139° Southeast 128 147 9,600  Level Albuquerque Center
Fri 01:11:02 AM 34.0917 -112.7406 140° Southeast 128 147 9,600  Level Albuquerque Center
Fri 01:11:12 AM 34.0867 -112.7372 151° Southeast 128 147 9,600 -98 Level Albuquerque Center
Fri 01:12:03 AM 34.0622 -112.7169 146° Southeast 126 145 9,500 -100 Descending Albuquerque Center
Fri 01:12:12 AM 34.0556 -112.7169 180° South 127 146 9,500  Level Albuquerque Center
Fri 01:13:13 AM 34.0267 -112.6986 152° Southeast 125 144 9,500  Level Albuquerque Center
Fri 01:14:04 AM 34.0011 -112.6747 142° Southeast 127 146 9,500  Level Albuquerque Center
Fri 01:14:14 AM 33.9961 -112.6703 144° Southeast 127 146 9,500  Level Albuquerque Center
Fri 01:15:04 AM 33.9725 -112.6497 144° Southeast 128 147 9,500  Level Albuquerque Center
Fri 01:15:20 AM 33.9636 -112.6428 147° Southeast 127 146 9,500  Level Albuquerque Center
Fri 01:16:05 AM 33.9467 -112.6239 137° Southeast 124 143 9,500 98 Level Albuquerque Center
Fri 01:16:21 AM 33.9397 -112.6156 135° Southeast 125 144 9,600 98 Climbing Albuquerque Center
Fri 01:17:06 AM 33.9211 -112.5958 139° Southeast 124 143 9,600  Level Albuquerque Center
Fri 01:17:21 AM 33.9111 -112.5869 144° Southeast 123 142 9,600  Level Albuquerque Center
Fri 01:18:06 AM 33.8944 -112.5700 140° Southeast 124 143 9,600  Level Albuquerque Center
Fri 01:18:22 AM 33.8831 -112.5608 146° Southeast 126 145 9,600  Level Albuquerque Center
Fri 01:19:07 AM 33.8653 -112.5458 145° Southeast 126 145 9,600  Level Albuquerque Center
Fri 01:19:17 AM 33.8558 -112.5394 151° Southeast 129 148 9,600 -200 Level Albuquerque Center
Fri 01:20:07 AM 33.8367 -112.5211 142° Southeast 127 146 9,400 -400 Descending Albuquerque Center
Fri 01:20:17 AM 33.8286 -112.5183 164° South 122 140 9,200 -492 Descending Albuquerque Center
Fri 01:21:08 AM 33.8086 -112.5014 145° Southeast 119 137 8,900 -393 Descending Albuquerque Center
Fri 01:21:18 AM 33.7994 -112.4975 161° South 118 136 8,800 -300 Descending Albuquerque Center
Fri 01:22:08 AM 33.7831 -112.4769 134° Southeast 118 136 8,600 -300 Descending Albuquerque Center
Fri 01:22:18 AM 33.7750 -112.4681 137° Southeast 118 136 8,500 -295 Descending Albuquerque Center
Fri 01:23:09 AM 33.7639 -112.4467 122° Southeast 117 135 8,300 -393 Descending Albuquerque Center
Fri 01:23:19 AM 33.7572 -112.4392 137° Southeast 114 131 8,100 -400 Descending Albuquerque Center
Fri 01:24:09 AM 33.7436 -112.4186 129° Southeast 112 129 7,900 -393 Descending Albuquerque Center
Fri 01:24:20 AM 33.7353 -112.4117 145° Southeast 112 129 7,700 -492 Descending Albuquerque Center
Fri 01:25:10 AM 33.7181 -112.3869 130° Southeast 111 128 7,400 -400 Descending Albuquerque Center
Fri 01:25:20 AM 33.7133 -112.3842 154° Southeast 112 129 7,300 -400 Descending Albuquerque Center
Fri 01:26:10 AM 33.6972 -112.3586 127° Southeast 112 129 7,000 -358 Descending Albuquerque Center
Fri 01:26:27 AM 33.6928 -112.3536 137° Southeast 112 129 6,900 -393 Descending Albuquerque Center
Fri 01:27:11 AM 33.6783 -112.3294 126° Southeast 111 128 6,600 -393 Descending Albuquerque Center
Fri 01:27:28 AM 33.6725 -112.3231 138° Southeast 112 129 6,500 -500 Descending Albuquerque Center
Fri 01:28:11 AM 33.6711 -112.2981 94° East 111 128 6,100 -577 Descending Albuquerque Center
Fri 01:29:12 AM 33.6747 -112.2608 83° East 113 130 5,500 -397 Descending Albuquerque Center
Fri 01:30:12 AM 33.6775 -112.2231 85° East 113 130 5,300 -200 Descending Albuquerque Center

Login

Don't have an account? Register now (free) for customized features, flight alerts, and more!